Time;durP1;ratioP1;P1;durP2;ratioP2;P2;SDS_P1;SDS_P2;PMS_P1;PMS_P2;Temp;Humidity;BMP_temperature;BMP_pressure;BME280_temperature;BME280_humidity;BME280_pressure;Samples;Min_cycle;Max_cycle;Signal;HPM_P1;HPM_P2
2022/04/15 00:02:24;;;;;;;0.60;0.60;;;;;;;2.74;64.84;99267.66;4791887;30;20085;-87
2022/04/15 00:04:52;;;;;;;0.60;0.60;;;;;;;2.80;64.75;99281.06;4790014;30;20354;-87
2022/04/15 00:07:19;;;;;;;0.63;0.63;;;;;;;2.80;64.84;99277.56;4791637;30;20527;-87
2022/04/15 00:09:46;;;;;;;0.60;0.60;;;;;;;2.76;65.14;99276.28;4800989;30;20066;-84
2022/04/15 00:12:18;;;;;;;0.65;0.65;;;;;;;2.73;65.39;99266.81;4783580;30;20078;-83
2022/04/15 00:14:45;;;;;;;0.63;0.63;;;;;;;2.69;65.61;99264.75;4779776;30;20079;-84
2022/04/15 00:17:12;;;;;;;0.70;0.70;;;;;;;2.69;65.54;99268.22;4774037;30;20083;-84
2022/04/15 00:19:39;;;;;;;0.70;0.70;;;;;;;2.67;65.74;99261.44;4783168;30;20063;-83
2022/04/15 00:22:06;;;;;;;0.60;0.60;;;;;;;2.66;65.59;99252.63;4775805;29;20051;-87
2022/04/15 00:24:33;;;;;;;0.70;0.70;;;;;;;2.68;65.56;99258.56;4777729;30;20113;-86
2022/04/15 00:27:01;;;;;;;0.60;0.60;;;;;;;2.73;65.34;99258.81;4779760;29;20076;-86
2022/04/15 00:29:28;;;;;;;0.63;0.63;;;;;;;2.68;65.05;99260.41;4762600;30;20089;-86
2022/04/15 00:31:55;;;;;;;0.60;0.60;;;;;;;2.63;65.22;99257.47;4780424;30;20103;-85
2022/04/15 00:34:23;;;;;;;0.70;0.70;;;;;;;2.54;65.74;99252.25;4780795;30;20117;-86
2022/04/15 00:36:49;;;;;;;0.60;0.60;;;;;;;2.52;66.05;99250.78;4773714;30;20060;-86
2022/04/15 00:39:16;;;;;;;0.70;0.70;;;;;;;2.61;65.33;99252.34;4783461;30;20117;-86
2022/04/15 00:41:43;;;;;;;0.65;0.65;;;;;;;2.61;65.19;99249.69;4788536;29;20082;-86
2022/04/15 00:44:11;;;;;;;0.60;0.60;;;;;;;2.59;65.39;99249.03;4788954;29;20065;-86
2022/04/15 00:46:38;;;;;;;0.70;0.70;;;;;;;2.60;65.73;99242.69;4788322;29;20058;-86
2022/04/15 00:49:05;;;;;;;0.50;0.50;;;;;;;2.66;65.84;99254.44;4803132;29;20174;-85
2022/04/15 00:51:35;;;;;;;0.60;0.60;;;;;;;2.71;65.66;99255.53;4788251;30;20086;-86
2022/04/15 00:54:03;;;;;;;0.70;0.70;;;;;;;2.71;65.93;99252.03;4789000;29;20062;-85
2022/04/15 00:56:36;;;;;;;0.60;0.60;;;;;;;2.78;66.07;99253.75;4789429;29;20062;-84
2022/04/15 00:59:04;;;;;;;0.68;0.68;;;;;;;2.86;65.57;99255.50;4787818;30;20047;-86
2022/04/15 01:01:33;;;;;;;0.60;0.60;;;;;;;2.93;65.25;99259.03;4771561;30;20063;-88
2022/04/15 01:04:03;;;;;;;0.60;0.60;;;;;;;2.92;65.40;99259.25;4785367;30;20051;-85
2022/04/15 01:06:30;;;;;;;0.60;0.60;;;;;;;2.94;65.46;99258.06;4801386;29;20528;-88
2022/04/15 01:08:58;;;;;;;0.70;0.70;;;;;;;2.89;65.44;99256.97;4788513;29;20187;-88
2022/04/15 01:11:27;;;;;;;0.60;0.60;;;;;;;2.86;65.90;99255.50;4786413;30;20512;-89
2022/04/15 01:13:59;;;;;;;0.70;0.70;;;;;;;2.87;66.06;99259.81;4787469;30;20055;-88
2022/04/15 01:16:27;;;;;;;0.60;0.60;;;;;;;2.80;66.18;99254.41;4772613;30;20055;-88
2022/04/15 01:18:55;;;;;;;0.65;0.65;;;;;;;2.81;66.40;99252.56;4788918;29;20055;-86
2022/04/15 01:21:24;;;;;;;0.60;0.60;;;;;;;2.80;66.16;99253.56;4789690;30;20083;-87
2022/04/15 01:23:53;;;;;;;0.65;0.65;;;;;;;2.77;66.05;99252.13;4788621;30;20096;-87
2022/04/15 01:26:20;;;;;;;0.60;0.60;;;;;;;2.68;66.93;99245.22;4786351;30;20420;-85
2022/04/15 01:28:47;;;;;;;0.60;0.60;;;;;;;2.69;67.08;99254.09;4794703;29;20046;-84
2022/04/15 01:31:14;;;;;;;0.70;0.70;;;;;;;2.70;67.11;99250.38;4816060;29;20062;-87
2022/04/15 01:33:42;;;;;;;0.63;0.63;;;;;;;2.75;66.75;99242.66;4785968;30;20489;-88
2022/04/15 01:36:10;;;;;;;0.60;0.60;;;;;;;2.74;66.87;99241.84;4787568;29;20059;-86
2022/04/15 01:38:38;;;;;;;0.60;0.60;;;;;;;2.70;66.75;99239.72;4787377;29;20576;-88
2022/04/15 01:41:06;;;;;;;0.68;0.68;;;;;;;2.70;66.90;99234.41;4786516;29;20055;-86
2022/04/15 01:43:33;;;;;;;0.68;0.68;;;;;;;2.63;66.83;99246.81;4784867;30;20541;-85
2022/04/15 01:46:00;;;;;;;0.60;0.60;;;;;;;2.60;67.20;99237.34;4787773;30;20055;-86
2022/04/15 01:48:27;;;;;;;0.55;0.55;;;;;;;2.55;67.36;99239.75;4785631;30;20145;-87
2022/04/15 01:50:55;;;;;;;0.70;0.70;;;;;;;2.50;67.60;99227.00;4770929;30;20055;-87
2022/04/15 01:53:22;;;;;;;0.60;0.60;;;;;;;2.51;67.70;99234.00;4786618;30;20051;-87
2022/04/15 01:55:49;;;;;;;0.70;0.70;;;;;;;2.50;67.58;99229.66;4787384;30;20131;-88
2022/04/15 01:58:17;;;;;;;0.70;0.70;;;;;;;2.45;67.74;99226.72;4792197;30;20112;-88
2022/04/15 02:00:45;;;;;;;0.70;0.70;;;;;;;2.39;68.16;99228.31;4787044;30;20104;-86
2022/04/15 02:03:12;;;;;;;0.70;0.70;;;;;;;2.47;68.29;99230.03;4799652;29;20451;-86
2022/04/15 02:05:40;;;;;;;0.70;0.70;;;;;;;2.52;68.09;99218.81;4800364;29;20448;-87
2022/04/15 02:08:07;;;;;;;0.63;0.63;;;;;;;2.53;67.95;99212.47;4785758;30;20087;-87
2022/04/15 02:10:34;;;;;;;0.70;0.70;;;;;;;2.57;68.27;99214.56;4785093;30;20090;-89
2022/04/15 02:13:01;;;;;;;0.68;0.68;;;;;;;2.60;68.50;99214.19;4786184;30;20539;-88
2022/04/15 02:15:29;;;;;;;0.80;0.80;;;;;;;2.67;68.45;99219.63;4787276;29;20090;-89
2022/04/15 02:17:56;;;;;;;0.70;0.70;;;;;;;2.66;68.45;99211.78;4787403;30;20066;-88
2022/04/15 02:20:23;;;;;;;0.65;0.65;;;;;;;2.71;68.39;99217.38;4785772;30;20262;-88
2022/04/15 02:22:52;;;;;;;0.80;0.80;;;;;;;2.79;68.29;99217.28;4787065;30;20066;-87
2022/04/15 02:25:19;;;;;;;0.70;0.70;;;;;;;2.80;68.08;99226.94;4786390;29;20055;-86
2022/04/15 02:27:46;;;;;;;0.70;0.70;;;;;;;2.77;68.36;99225.47;4786770;30;20603;-87
2022/04/15 02:30:13;;;;;;;0.60;0.60;;;;;;;2.73;68.30;99228.69;4787676;29;20058;-86
2022/04/15 02:32:40;;;;;;;0.70;0.70;;;;;;;2.68;68.36;99231.09;4770266;30;20060;-88
2022/04/15 02:35:08;;;;;;;0.70;0.70;;;;;;;2.58;68.78;99231.38;4786992;30;20112;-89
2022/04/15 02:37:35;;;;;;;0.60;0.60;;;;;;;2.45;69.34;99232.06;4786697;29;20055;-88
2022/04/15 02:40:04;;;;;;;0.60;0.60;;;;;;;2.38;69.23;99228.47;4786677;30;20062;-88
2022/04/15 02:42:31;;;;;;;0.70;0.70;;;;;;;2.38;69.03;99226.66;4784364;30;20516;-89
2022/04/15 02:44:58;;;;;;;0.70;0.70;;;;;;;2.36;69.21;99233.19;4786647;29;20505;-87
2022/04/15 02:47:25;;;;;;;0.60;0.60;;;;;;;2.32;68.92;99229.25;4785134;30;20055;-86
2022/04/15 02:49:52;;;;;;;0.60;0.60;;;;;;;2.30;69.05;99233.91;4786441;29;20059;-84
2022/04/15 02:52:20;;;;;;;0.65;0.65;;;;;;;2.31;68.96;99225.75;4785621;30;20059;-87
2022/04/15 02:54:47;;;;;;;0.68;0.68;;;;;;;2.37;68.88;99224.19;4785288;30;20052;-86
2022/04/15 02:57:14;;;;;;;0.50;0.50;;;;;;;2.45;69.00;99226.72;4785540;29;20056;-85
2022/04/15 02:59:41;;;;;;;0.70;0.70;;;;;;;2.55;68.35;99221.09;4799620;29;20052;-86
2022/04/15 03:02:08;;;;;;;0.70;0.70;;;;;;;2.57;68.34;99222.56;4785824;30;20086;-86
2022/04/15 03:04:36;;;;;;;0.77;0.77;;;;;;;2.68;67.90;99225.75;4799303;29;20522;-89
2022/04/15 03:07:03;;;;;;;0.70;0.70;;;;;;;2.71;67.93;99222.72;4789776;30;20063;-87
2022/04/15 03:09:30;;;;;;;0.68;0.68;;;;;;;2.70;67.73;99223.75;4787679;30;20051;-85
2022/04/15 03:11:57;;;;;;;0.70;0.70;;;;;;;2.72;67.76;99222.53;4789413;30;20503;-89
2022/04/15 03:14:24;;;;;;;0.68;0.68;;;;;;;2.72;68.13;99222.53;4780371;30;20146;-86
2022/04/15 03:16:51;;;;;;;0.70;0.70;;;;;;;2.72;68.37;99227.03;4785687;30;20104;-84
2022/04/15 03:19:18;;;;;;;0.70;0.70;;;;;;;2.79;68.49;99220.78;4789395;29;20134;-85
2022/04/15 03:21:46;;;;;;;0.70;0.70;;;;;;;2.89;68.69;99217.81;4789577;29;20128;-86
2022/04/15 03:24:13;;;;;;;0.70;0.70;;;;;;;2.98;68.76;99224.66;4789254;29;20138;-86
2022/04/15 03:26:40;;;;;;;0.80;0.80;;;;;;;3.06;68.67;99221.03;4788936;29;20071;-86
2022/04/15 03:29:07;;;;;;;0.70;0.70;;;;;;;3.16;68.48;99218.88;4789596;30;20059;-88
2022/04/15 03:31:34;;;;;;;0.65;0.65;;;;;;;3.25;68.22;99214.25;4789775;29;20077;-86
2022/04/15 03:34:01;;;;;;;0.68;0.68;;;;;;;3.35;67.28;99221.91;4788946;29;20063;-86
2022/04/15 03:36:28;;;;;;;0.70;0.70;;;;;;;3.44;66.92;99216.25;4788959;29;20052;-86
2022/04/15 03:38:55;;;;;;;0.70;0.70;;;;;;;3.47;66.57;99205.19;4789835;29;20051;-86
2022/04/15 03:41:22;;;;;;;0.70;0.70;;;;;;;3.45;66.90;99201.88;4792072;29;20065;-86
2022/04/15 03:43:50;;;;;;;0.60;0.60;;;;;;;3.43;67.29;99203.09;4796962;30;20051;-85
2022/04/15 03:46:17;;;;;;;0.68;0.68;;;;;;;3.51;67.11;99207.47;4800306;29;20075;-85
2022/04/15 03:48:45;;;;;;;0.70;0.70;;;;;;;3.57;67.09;99207.53;4802342;29;20067;-86
2022/04/15 03:51:12;;;;;;;0.70;0.70;;;;;;;3.63;66.90;99211.25;4789772;29;20059;-86
2022/04/15 03:53:39;;;;;;;0.60;0.60;;;;;;;3.68;66.53;99200.81;4790736;29;20055;-86
2022/04/15 03:56:07;;;;;;;0.70;0.70;;;;;;;3.79;66.42;99212.78;4791306;29;20469;-85
2022/04/15 03:58:37;;;;;;;0.60;0.60;;;;;;;3.86;65.98;99213.66;4790825;29;20078;-86
2022/04/15 04:01:04;;;;;;;0.60;0.60;;;;;;;3.89;65.91;99214.09;4790180;30;20603;-87
2022/04/15 04:03:31;;;;;;;0.60;0.60;;;;;;;3.86;65.73;99214.47;4773713;30;20083;-87
2022/04/15 04:05:58;;;;;;;0.60;0.60;;;;;;;3.82;65.73;99205.22;4790854;30;20055;-87
2022/04/15 04:08:25;;;;;;;0.60;0.60;;;;;;;3.89;65.77;99210.59;4789900;29;20128;-86
2022/04/15 04:10:52;;;;;;;0.60;0.60;;;;;;;3.99;65.04;99202.22;4789336;29;20051;-85
2022/04/15 04:13:19;;;;;;;0.70;0.70;;;;;;;4.05;64.97;99207.63;4787261;30;20112;-87
2022/04/15 04:15:46;;;;;;;0.60;0.60;;;;;;;4.14;64.69;99210.94;4802429;29;20082;-86
2022/04/15 04:18:14;;;;;;;0.70;0.70;;;;;;;4.19;64.62;99203.16;4787469;30;20538;-86
2022/04/15 04:20:41;;;;;;;0.70;0.70;;;;;;;4.31;64.13;99214.94;4788476;30;20089;-87
2022/04/15 04:23:09;;;;;;;0.60;0.60;;;;;;;4.43;63.51;99203.66;4789045;29;20059;-88
2022/04/15 04:25:36;;;;;;;0.60;0.60;;;;;;;4.39;63.44;99207.78;4787310;30;20047;-87
2022/04/15 04:28:03;;;;;;;0.57;0.57;;;;;;;4.44;63.29;99200.81;4786768;29;20154;-86
2022/04/15 04:30:30;;;;;;;0.63;0.63;;;;;;;4.53;63.13;99201.44;4788115;29;20128;-87
2022/04/15 04:32:59;;;;;;;0.60;0.60;;;;;;;4.59;63.19;99205.19;4788200;30;20087;-85
2022/04/15 04:35:27;;;;;;;0.60;0.60;;;;;;;4.69;62.87;99195.75;4788279;29;20055;-86
2022/04/15 04:37:54;;;;;;;0.60;0.60;;;;;;;4.73;62.68;99194.28;4788418;29;20063;-87
2022/04/15 04:40:21;;;;;;;0.70;0.70;;;;;;;4.77;62.56;99194.72;4787867;29;20062;-86
2022/04/15 04:42:50;;;;;;;0.63;0.63;;;;;;;4.71;62.55;99185.69;4787830;29;20055;-88
2022/04/15 04:45:18;;;;;;;0.70;0.70;;;;;;;4.72;62.30;99198.00;4787856;29;20062;-86
2022/04/15 04:47:46;;;;;;;0.70;0.70;;;;;;;4.65;62.46;99199.84;4788659;29;20059;-85
2022/04/15 04:50:13;;;;;;;0.70;0.70;;;;;;;4.62;62.84;99197.56;4788060;30;20486;-86
2022/04/15 04:52:40;;;;;;;0.65;0.65;;;;;;;4.71;62.62;99200.88;4801658;29;20059;-86
2022/04/15 04:55:08;;;;;;;0.60;0.60;;;;;;;4.86;62.28;99203.38;4787677;29;20077;-86
2022/04/15 04:57:38;;;;;;;0.60;0.60;;;;;;;5.06;61.92;99204.25;4787627;29;20058;-86
2022/04/15 05:00:31;;;;;;;0.60;0.60;;;;;;;5.11;61.84;99206.31;4787905;29;20090;-87
2022/04/15 05:03:01;;;;;;;0.60;0.60;;;;;;;5.06;62.19;99204.25;4787010;30;20450;-86
2022/04/15 05:05:29;;;;;;;0.60;0.60;;;;;;;4.99;62.10;99208.78;4787670;30;20415;-87
2022/04/15 05:07:56;;;;;;;0.65;0.65;;;;;;;5.04;62.26;99205.47;4789094;29;20085;-88
2022/04/15 05:10:23;;;;;;;0.68;0.68;;;;;;;5.09;62.34;99211.88;4788459;29;20497;-87
2022/04/15 05:12:50;;;;;;;0.60;0.60;;;;;;;5.08;62.45;99207.53;4788725;29;20051;-86
2022/04/15 05:15:19;;;;;;;0.70;0.70;;;;;;;5.19;62.00;99198.91;4788052;29;20124;-87
2022/04/15 05:17:46;;;;;;;0.60;0.60;;;;;;;5.31;61.36;99199.13;4787945;29;20051;-86
2022/04/15 05:20:18;;;;;;;0.63;0.63;;;;;;;5.48;61.18;99191.50;4788539;29;20051;-86
2022/04/15 05:22:45;;;;;;;0.60;0.60;;;;;;;5.65;60.83;99192.72;4788862;30;20059;-87
2022/04/15 05:25:13;;;;;;;0.60;0.60;;;;;;;5.88;60.04;99191.47;4789659;29;20426;-87
2022/04/15 05:27:40;;;;;;;0.60;0.60;;;;;;;6.03;59.32;99194.75;4789609;29;20062;-87
2022/04/15 05:30:32;;;;;;;0.60;0.60;;;;;;;6.15;59.01;99197.56;4787737;30;20518;-87
2022/04/15 05:32:59;;;;;;;0.60;0.60;;;;;;;6.18;58.15;99194.50;4789729;29;20142;-87
2022/04/15 05:35:26;;;;;;;0.60;0.60;;;;;;;6.17;57.40;99190.16;4790387;30;20082;-87
2022/04/15 05:37:53;;;;;;;0.60;0.60;;;;;;;6.13;57.48;99197.00;4789770;29;20059;-87
2022/04/15 05:40:22;;;;;;;0.70;0.70;;;;;;;6.17;57.46;99194.69;4788215;29;20055;-88
2022/04/15 05:42:49;;;;;;;0.60;0.60;;;;;;;6.20;57.34;99199.63;4788351;29;20063;-87
2022/04/15 05:45:16;;;;;;;0.70;0.70;;;;;;;6.25;56.44;99195.31;4789007;29;20048;-86
2022/04/15 05:47:44;;;;;;;0.65;0.65;;;;;;;6.27;55.86;99190.53;4787539;29;20055;-86
2022/04/15 05:50:11;;;;;;;0.70;0.70;;;;;;;6.24;53.63;99201.69;4787802;29;20059;-88
2022/04/15 05:52:38;;;;;;;0.60;0.60;;;;;;;6.18;53.10;99201.69;4787995;29;20059;-88
2022/04/15 05:55:06;;;;;;;0.70;0.70;;;;;;;6.12;53.34;99199.88;4770972;30;20527;-86
2022/04/15 05:57:33;;;;;;;0.70;0.70;;;;;;;6.17;53.55;99202.75;4787888;29;20063;-85
2022/04/15 06:00:00;;;;;;;0.60;0.60;;;;;;;6.29;54.15;99198.38;4801428;29;20189;-85
2022/04/15 06:02:37;;;;;;;0.70;0.70;;;;;;;6.50;53.99;99200.75;4781704;30;20123;-87
2022/04/15 06:05:05;;;;;;;0.68;0.68;;;;;;;6.70;53.53;99202.50;4793014;29;20052;-86
2022/04/15 06:07:32;;;;;;;0.70;0.70;;;;;;;6.50;52.08;99200.75;4768253;30;20059;-87
2022/04/15 06:09:59;;;;;;;0.70;0.70;;;;;;;6.60;52.92;99200.28;4769701;30;20059;-86
2022/04/15 06:15:24;;;;;;;0.70;0.70;;;;;;;6.91;52.25;99198.66;4764935;30;20219;-88
2022/04/15 06:17:51;;;;;;;0.70;0.70;;;;;;;7.03;51.60;99196.13;4768520;30;20139;-85
2022/04/15 06:20:18;;;;;;;0.60;0.60;;;;;;;7.15;51.55;99194.41;4772536;30;20055;-87
2022/04/15 06:22:46;;;;;;;0.70;0.70;;;;;;;7.33;50.68;99183.72;4776626;30;20056;-86
2022/04/15 06:25:13;;;;;;;0.70;0.70;;;;;;;7.43;50.77;99183.22;4776630;30;20113;-89
2022/04/15 06:27:40;;;;;;;0.70;0.70;;;;;;;7.69;50.55;99186.72;4778230;29;20532;-87
2022/04/15 06:30:08;;;;;;;0.70;0.70;;;;;;;7.89;49.60;99190.03;4774165;30;20077;-92
2022/04/15 06:32:36;;;;;;;0.70;0.70;;;;;;;7.98;49.08;99190.56;4772413;30;20079;-90
2022/04/15 06:35:05;;;;;;;0.60;0.60;;;;;;;8.17;48.38;99183.31;4785358;30;20397;-88
2022/04/15 06:37:32;;;;;;;0.60;0.60;;;;;;;8.18;47.44;99179.63;4781243;30;20470;-89
2022/04/15 06:39:59;;;;;;;0.70;0.70;;;;;;;8.06;47.67;99170.66;4786915;29;20055;-90
2022/04/15 06:42:30;;;;;;;0.60;0.60;;;;;;;8.04;47.57;99182.44;4775364;29;20062;-83
2022/04/15 06:45:01;;;;;;;0.60;0.60;;;;;;;7.86;48.08;99181.59;4773464;30;20052;-89
2022/04/15 06:47:29;;;;;;;0.70;0.70;;;;;;;7.89;47.97;99179.28;4782066;30;20060;-92
2022/04/15 06:49:56;;;;;;;0.70;0.70;;;;;;;8.10;48.22;99180.72;4784753;30;20086;-94
2022/04/15 06:52:23;;;;;;;0.60;0.60;;;;;;;8.17;47.72;99178.75;4779986;30;20052;-90
2022/04/15 06:54:50;;;;;;;0.70;0.70;;;;;;;8.11;47.69;99177.00;4778950;30;20106;-92
2022/04/15 06:57:18;;;;;;;0.60;0.60;;;;;;;8.18;46.97;99169.66;4780953;30;20086;-90
2022/04/15 06:59:46;;;;;;;0.60;0.60;;;;;;;8.19;46.98;99170.50;4445318;29;10000228;-91
2022/04/15 07:02:13;;;;;;;0.70;0.70;;;;;;;8.29;46.77;99169.97;4768423;30;20085;-89
2022/04/15 07:04:40;;;;;;;0.70;0.70;;;;;;;8.28;45.64;99157.53;4788654;30;20036;-93
2022/04/15 07:07:08;;;;;;;0.70;0.70;;;;;;;8.11;45.90;99166.22;4784497;30;20086;-93
2022/04/15 07:10:00;;;;;;;0.60;0.60;;;;;;;8.24;46.30;99165.25;4800696;30;20063;-92
2022/04/15 07:13:03;;;;;;;0.60;0.60;;;;;;;8.34;46.11;99162.03;4786688;30;20107;-94
2022/04/15 07:15:34;;;;;;;0.60;0.60;;;;;;;8.41;45.21;99147.50;4698257;30;20066;-92
2022/04/15 07:18:05;;;;;;;0.60;0.60;;;;;;;8.56;45.30;99149.78;4721008;30;20084;-90
2022/04/15 07:20:38;;;;;;;0.60;0.60;;;;;;;8.67;44.82;99151.69;4720928;30;20537;-96
2022/04/15 07:23:09;;;;;;;0.60;0.60;;;;;;;8.41;44.68;99125.97;4716174;30;20537;-93
2022/04/15 07:25:36;;;;;;;0.60;0.60;;;;;;;8.57;45.14;99139.84;4706023;30;20061;-94
2022/04/15 07:28:04;;;;;;;0.70;0.70;;;;;;;8.81;45.13;99132.66;4709575;30;20069;-93
2022/04/15 07:30:34;;;;;;;0.60;0.60;;;;;;;9.20;44.51;99155.44;4727951;30;20095;-94
2022/04/15 07:33:02;;;;;;;0.60;0.60;;;;;;;9.13;43.88;99137.78;4717872;30;20099;-91
2022/04/15 07:35:32;;;;;;;0.70;0.70;;;;;;;9.32;43.71;99115.91;4720324;30;20052;-93
2022/04/15 07:38:03;;;;;;;0.70;0.70;;;;;;;9.77;42.77;99139.56;4714244;30;20120;-93
2022/04/15 07:40:31;;;;;;;0.60;0.60;;;;;;;10.01;42.41;99138.69;4719551;30;20065;-94
2022/04/15 07:42:58;;;;;;;0.63;0.63;;;;;;;10.13;42.07;99144.91;4712752;30;20064;-94
2022/04/15 07:45:26;;;;;;;0.70;0.70;;;;;;;10.32;41.57;99140.97;4720273;30;20473;-87
2022/04/15 07:47:55;;;;;;;0.70;0.70;;;;;;;10.69;41.28;99137.91;4712434;30;20053;-88
2022/04/15 07:50:25;;;;;;;0.70;0.70;;;;;;;10.93;39.80;99143.19;4708903;30;20060;-88
2022/04/15 07:52:57;;;;;;;0.60;0.60;;;;;;;10.76;39.16;99148.53;4740614;30;20094;-91
2022/04/15 07:55:26;;;;;;;0.60;0.60;;;;;;;10.40;39.45;99147.88;4775129;30;20214;-85
2022/04/15 07:57:54;;;;;;;0.60;0.60;;;;;;;10.51;39.83;99143.53;4772573;30;20056;-90
2022/04/15 08:00:21;;;;;;;0.60;0.60;;;;;;;10.75;38.81;99139.63;4775848;29;20079;-90
2022/04/15 08:02:49;;;;;;;0.70;0.70;;;;;;;10.72;38.62;99132.03;4769920;30;20063;-88
2022/04/15 08:05:16;;;;;;;0.70;0.70;;;;;;;10.47;38.58;99142.34;4776491;30;20056;-88
2022/04/15 08:07:43;;;;;;;0.60;0.60;;;;;;;10.37;38.87;99132.19;4775967;30;20060;-86
2022/04/15 08:10:10;;;;;;;0.60;0.60;;;;;;;10.39;38.99;99132.75;4768553;30;20131;-87
2022/04/15 08:12:38;;;;;;;0.70;0.70;;;;;;;10.33;38.84;99128.31;4769091;30;20430;-90
2022/04/15 08:15:07;;;;;;;0.70;0.70;;;;;;;10.48;38.69;99149.38;4776549;30;20149;-88
2022/04/15 08:17:35;;;;;;;0.60;0.60;;;;;;;10.77;38.46;99142.91;4802733;29;20078;-85
2022/04/15 08:20:07;;;;;;;0.60;0.60;;;;;;;10.96;38.20;99127.34;4774266;30;20142;-85
2022/04/15 08:22:36;;;;;;;0.50;0.50;;;;;;;10.98;37.47;99127.88;4765599;30;20055;-85
2022/04/15 08:25:04;;;;;;;0.50;0.50;;;;;;;10.51;37.97;99127.34;4771440;30;20086;-86
2022/04/15 08:27:32;;;;;;;0.60;0.60;;;;;;;10.27;38.63;99138.16;4762756;30;20202;-85
2022/04/15 08:29:59;;;;;;;0.60;0.60;;;;;;;10.33;38.70;99126.44;4771234;30;20093;-88
2022/04/15 08:32:32;;;;;;;0.60;0.60;;;;;;;10.27;38.21;99129.25;4775553;30;20060;-87
2022/04/15 08:35:11;;;;;;;0.60;0.60;;;;;;;10.12;38.43;99132.44;4776341;30;20059;-86
2022/04/15 08:37:39;;;;;;;0.60;0.60;;;;;;;10.01;38.46;99127.91;4783961;29;20120;-89
2022/04/15 08:40:07;;;;;;;0.60;0.60;;;;;;;10.30;38.60;99124.22;4784029;29;20060;-86
2022/04/15 08:42:35;;;;;;;0.60;0.60;;;;;;;10.82;38.25;99124.13;4759928;30;20115;-87
2022/04/15 08:45:02;;;;;;;0.60;0.60;;;;;;;11.11;37.47;99131.34;4774699;30;20052;-91
2022/04/15 08:47:31;;;;;;;0.60;0.60;;;;;;;11.39;36.75;99123.13;4787000;30;20597;-88
2022/04/15 08:50:10;;;;;;;0.60;0.60;;;;;;;11.41;36.66;99110.22;4767654;30;20578;-88
2022/04/15 08:52:37;;;;;;;0.60;0.60;;;;;;;11.71;36.18;99119.84;4772703;30;20052;-88
2022/04/15 08:55:05;;;;;;;0.60;0.60;;;;;;;11.99;35.15;99109.97;4770571;30;20064;-86
2022/04/15 08:57:33;;;;;;;0.68;0.68;;;;;;;12.29;34.88;99121.16;4773180;30;20052;-88
2022/04/15 09:00:00;;;;;;;0.70;0.70;;;;;;;12.44;34.24;99114.28;4777120;30;20094;-89
2022/04/15 09:02:37;;;;;;;0.60;0.60;;;;;;;12.38;34.21;99112.59;4786069;29;20060;-88
2022/04/15 09:05:10;;;;;;;0.60;0.60;;;;;;;12.42;34.03;99119.13;4777595;29;20055;-89
2022/04/15 09:07:37;;;;;;;0.60;0.60;;;;;;;12.41;33.33;99137.28;4779476;29;20112;-86
2022/04/15 09:10:06;;;;;;;0.60;0.60;;;;;;;11.58;34.56;99126.41;4785650;30;20055;-87
2022/04/15 09:12:37;;;;;;;0.60;0.60;;;;;;;11.36;35.18;99120.13;4783866;29;20059;-87
2022/04/15 09:15:17;;;;;;;0.60;0.60;;;;;;;11.22;35.47;99123.16;4754902;30;20496;-85
2022/04/15 09:17:49;;;;;;;0.60;0.60;;;;;;;11.37;36.07;99110.94;4781332;30;20520;-87
2022/04/15 09:20:17;;;;;;;0.60;0.60;;;;;;;11.24;35.72;99114.81;4776434;30;20530;-83
2022/04/15 09:22:44;;;;;;;0.50;0.50;;;;;;;10.87;36.35;99106.38;4771128;29;20535;-85
2022/04/15 09:25:12;;;;;;;0.50;0.50;;;;;;;10.68;36.91;99114.66;4764343;30;20585;-84
2022/04/15 09:27:39;;;;;;;0.50;0.50;;;;;;;10.53;37.00;99114.41;4763476;30;20056;-85
2022/04/15 09:30:07;;;;;;;0.55;0.55;;;;;;;10.43;37.33;99108.81;4761374;30;20121;-86
2022/04/15 09:32:34;;;;;;;0.50;0.50;;;;;;;10.40;37.58;99118.19;4778634;30;20062;-84
2022/04/15 09:35:06;;;;;;;0.60;0.60;;;;;;;10.36;37.53;99104.38;4764637;30;20055;-84
2022/04/15 09:37:39;;;;;;;0.50;0.50;;;;;;;10.44;37.39;99094.28;4764443;30;20162;-85
2022/04/15 09:40:06;;;;;;;0.50;0.50;;;;;;;10.51;37.34;99100.34;4761741;30;20104;-86
2022/04/15 09:42:36;;;;;;;0.50;0.50;;;;;;;10.55;37.25;99101.47;4765798;30;20142;-87
2022/04/15 09:45:24;;;;;;;0.50;0.50;;;;;;;10.48;37.53;99090.00;4764264;30;20056;-85
2022/04/15 09:47:52;;;;;;;0.50;0.50;;;;;;;10.66;37.71;99091.69;4763036;30;20059;-88
2022/04/15 09:50:25;;;;;;;0.50;0.50;;;;;;;10.76;37.07;99091.84;4767299;30;20113;-88
2022/04/15 09:52:53;;;;;;;0.60;0.60;;;;;;;10.78;36.97;99090.56;4770233;30;20105;-87
2022/04/15 09:55:23;;;;;;;0.50;0.50;;;;;;;10.87;37.34;99082.88;4754558;30;20056;-86
2022/04/15 09:57:50;;;;;;;0.60;0.60;;;;;;;10.94;37.10;99088.97;4770304;30;20048;-87
2022/04/15 10:00:19;;;;;;;0.60;0.60;;;;;;;10.96;37.21;99096.78;4761996;30;20068;-87
2022/04/15 10:02:49;;;;;;;0.50;0.50;;;;;;;11.09;37.13;99085.69;4761480;30;20059;-88
2022/04/15 10:05:20;;;;;;;0.50;0.50;;;;;;;11.30;36.82;99084.13;4775719;30;20513;-87
2022/04/15 10:07:49;;;;;;;0.50;0.50;;;;;;;11.29;36.65;99085.16;4774477;29;20325;-88
2022/04/15 10:10:17;;;;;;;0.50;0.50;;;;;;;11.48;36.78;99081.13;4756560;30;20060;-89
2022/04/15 10:12:44;;;;;;;0.50;0.50;;;;;;;11.90;36.18;99083.38;4756747;30;20516;-87
2022/04/15 10:15:11;;;;;;;0.60;0.60;;;;;;;12.31;35.66;99077.63;4765363;30;20056;-88
2022/04/15 10:17:39;;;;;;;0.60;0.60;;;;;;;12.63;35.59;99079.56;4767201;30;20058;-86
2022/04/15 10:20:27;;;;;;;0.50;0.50;;;;;;;12.74;35.65;99076.69;4768545;30;20139;-89
2022/04/15 10:22:56;;;;;;;0.60;0.60;;;;;;;12.77;35.07;99067.25;4778077;30;20056;-88
2022/04/15 10:25:23;;;;;;;0.57;0.57;;;;;;;12.66;35.32;99066.34;4755507;30;20060;-91
2022/04/15 10:28:09;;;;;;;0.50;0.50;;;;;;;12.85;35.09;99072.19;4754530;30;20059;-87
2022/04/15 10:30:38;;;;;;;0.50;0.50;;;;;;;12.87;35.08;99063.81;4764763;30;20109;-87
2022/04/15 10:33:05;;;;;;;0.50;0.50;;;;;;;12.83;35.44;99071.63;4768074;30;20142;-88
2022/04/15 10:35:34;;;;;;;0.50;0.50;;;;;;;12.69;35.21;99065.00;4762993;30;20789;-87
2022/04/15 10:38:13;;;;;;;0.60;0.60;;;;;;;12.78;35.70;99066.16;4756490;30;20060;-89
2022/04/15 10:40:43;;;;;;;0.50;0.50;;;;;;;12.54;35.20;99069.19;4773511;30;20055;-87
2022/04/15 10:43:28;;;;;;;0.60;0.60;;;;;;;12.34;35.30;99061.69;4775508;30;20059;-89
2022/04/15 10:46:15;;;;;;;0.60;0.60;;;;;;;12.64;34.99;99049.53;4782188;30;20051;-88
2022/04/15 10:48:44;;;;;;;0.60;0.60;;;;;;;12.94;34.99;99051.69;4769565;30;20056;-88
2022/04/15 10:51:26;;;;;;;0.50;0.50;;;;;;;13.32;35.23;99052.53;4769770;30;20052;-87
2022/04/15 10:53:54;;;;;;;0.50;0.50;;;;;;;13.27;34.34;99041.66;4751412;30;20170;-87
2022/04/15 10:56:23;;;;;;;0.50;0.50;;;;;;;13.35;34.29;99046.56;4767035;30;20522;-85
2022/04/15 11:01:52;;;;;;;0.70;0.70;;;;;;;13.93;33.00;99040.38;4764464;30;20117;-87
2022/04/15 11:04:24;;;;;;;0.90;0.90;;;;;;;14.89;31.31;99031.63;4764754;30;20113;-88
2022/04/15 11:06:54;;;;;;;0.90;0.90;;;;;;;16.34;29.64;99028.19;4744430;30;20068;-88
2022/04/15 11:09:22;;;;;;;0.80;0.80;;;;;;;17.61;28.38;99020.03;4740891;30;20188;-89
2022/04/15 11:11:51;;;;;;;0.60;0.60;;;;;;;16.55;28.41;99025.34;4756394;30;20562;-87
2022/04/15 11:14:31;;;;;;;0.50;0.50;;;;;;;14.91;30.17;99028.59;4756814;30;20274;-88
2022/04/15 11:16:59;;;;;;;0.60;0.60;;;;;;;14.20;31.44;99016.53;4760959;30;20543;-88
2022/04/15 11:19:27;;;;;;;0.50;0.50;;;;;;;14.23;31.85;99016.03;4746716;30;20082;-88
2022/04/15 11:21:54;;;;;;;0.43;0.43;;;;;;;14.55;31.66;99019.63;4740066;30;20393;-89
2022/04/15 11:24:24;;;;;;;0.50;0.50;;;;;;;14.59;31.54;99021.53;4753668;30;20070;-88
2022/04/15 11:27:00;;;;;;;0.60;0.60;;;;;;;14.93;31.25;99010.13;4770137;30;20076;-89
2022/04/15 11:29:29;;;;;;;0.70;0.70;;;;;;;15.98;29.80;99003.88;4768319;30;20103;-88
2022/04/15 11:32:03;;;;;;;0.68;0.68;;;;;;;16.31;29.23;98996.09;4770717;30;20055;-89
2022/04/15 11:34:31;;;;;;;0.50;0.50;;;;;;;16.43;29.58;99001.16;4739259;30;20593;-88
2022/04/15 11:37:02;;;;;;;0.50;0.50;;;;;;;16.19;28.85;98993.69;4769157;30;20599;-89
2022/04/15 11:39:35;;;;;;;0.50;0.50;;;;;;;15.63;30.10;98984.97;4767322;30;20051;-89
2022/04/15 11:42:14;;;;;;;0.50;0.50;;;;;;;15.95;30.01;98988.13;4768170;30;20096;-89
2022/04/15 11:44:42;;;;;;;0.50;0.50;;;;;;;16.29;29.69;98978.41;4769699;30;20052;-90
2022/04/15 11:47:16;;;;;;;0.40;0.40;;;;;;;15.82;30.23;98973.22;4768429;30;20066;-90
2022/04/15 11:49:45;;;;;;;0.50;0.50;;;;;;;15.63;30.72;98979.53;4786953;30;20059;-90
2022/04/15 11:52:24;;;;;;;0.40;0.40;;;;;;;15.71;29.95;98978.97;4754907;30;20072;-88
2022/04/15 11:54:51;;;;;;;0.40;0.40;;;;;;;15.36;30.39;98977.97;4766561;30;20523;-91